sensor_id;sensor_type;location;lat;lon;timestamp;P1;P2;P0
12246;PMS7003;6186;52.022;4.692;2023-01-23T00:00:30;12.00;9.33;4.00
12246;PMS7003;6186;52.022;4.692;2023-01-23T00:02:55;11.33;9.00;4.67
12246;PMS7003;6186;52.022;4.692;2023-01-23T00:05:21;10.33;8.67;4.67
12246;PMS7003;6186;52.022;4.692;2023-01-23T00:07:47;12.00;11.67;5.00
12246;PMS7003;6186;52.022;4.692;2023-01-23T00:10:12;14.00;9.67;5.00
12246;PMS7003;6186;52.022;4.692;2023-01-23T00:12:41;10.33;8.67;2.67
12246;PMS7003;6186;52.022;4.692;2023-01-23T00:15:07;11.75;9.00;4.00
12246;PMS7003;6186;52.022;4.692;2023-01-23T00:17:34;10.50;9.50;4.50
12246;PMS7003;6186;52.022;4.692;2023-01-23T00:19:59;10.33;8.67;4.00
12246;PMS7003;6186;52.022;4.692;2023-01-23T00:22:25;9.00;8.67;4.67
12246;PMS7003;6186;52.022;4.692;2023-01-23T00:24:50;8.00;8.00;3.33
12246;PMS7003;6186;52.022;4.692;2023-01-23T00:27:16;9.67;9.67;5.00
12246;PMS7003;6186;52.022;4.692;2023-01-23T00:29:41;8.00;7.00;4.00
12246;PMS7003;6186;52.022;4.692;2023-01-23T00:32:06;10.33;9.00;4.00
12246;PMS7003;6186;52.022;4.692;2023-01-23T00:34:32;9.33;9.00;5.00
12246;PMS7003;6186;52.022;4.692;2023-01-23T00:36:57;11.67;9.67;5.00
12246;PMS7003;6186;52.022;4.692;2023-01-23T00:39:22;9.00;8.33;4.00
12246;PMS7003;6186;52.022;4.692;2023-01-23T00:41:48;12.33;11.00;5.00
12246;PMS7003;6186;52.022;4.692;2023-01-23T00:44:14;8.67;8.33;4.67
12246;PMS7003;6186;52.022;4.692;2023-01-23T00:46:40;11.00;9.00;4.25
12246;PMS7003;6186;52.022;4.692;2023-01-23T00:49:06;9.00;8.25;5.00
12246;PMS7003;6186;52.022;4.692;2023-01-23T00:51:32;9.50;9.00;4.25
12246;PMS7003;6186;52.022;4.692;2023-01-23T00:53:58;9.00;9.00;4.50
12246;PMS7003;6186;52.022;4.692;2023-01-23T00:56:23;8.00;8.00;4.00
12246;PMS7003;6186;52.022;4.692;2023-01-23T00:58:49;9.33;9.00;4.00
12246;PMS7003;6186;52.022;4.692;2023-01-23T01:01:14;9.00;9.00;5.00
12246;PMS7003;6186;52.022;4.692;2023-01-23T01:03:40;10.50;9.00;4.00
12246;PMS7003;6186;52.022;4.692;2023-01-23T01:06:06;11.25;9.50;4.00
12246;PMS7003;6186;52.022;4.692;2023-01-23T01:08:33;10.75;9.50;4.75
12246;PMS7003;6186;52.022;4.692;2023-01-23T01:10:59;11.00;9.67;5.00
12246;PMS7003;6186;52.022;4.692;2023-01-23T01:13:24;9.67;9.33;4.00
12246;PMS7003;6186;52.022;4.692;2023-01-23T01:15:50;10.00;8.75;4.00
12246;PMS7003;6186;52.022;4.692;2023-01-23T01:18:17;12.00;8.00;4.00
12246;PMS7003;6186;52.022;4.692;2023-01-23T01:20:42;13.67;10.33;4.67
12246;PMS7003;6186;52.022;4.692;2023-01-23T01:23:08;11.33;9.33;5.00
12246;PMS7003;6186;52.022;4.692;2023-01-23T01:25:34;9.50;8.00;4.75
12246;PMS7003;6186;52.022;4.692;2023-01-23T01:27:59;11.00;9.67;4.67
12246;PMS7003;6186;52.022;4.692;2023-01-23T01:30:25;9.00;8.33;4.33
12246;PMS7003;6186;52.022;4.692;2023-01-23T01:32:51;11.67;8.67;4.67
12246;PMS7003;6186;52.022;4.692;2023-01-23T01:35:18;10.75;8.50;4.00
12246;PMS7003;6186;52.022;4.692;2023-01-23T01:37:44;10.25;8.00;4.00
12246;PMS7003;6186;52.022;4.692;2023-01-23T01:40:13;13.00;9.00;4.00
12246;PMS7003;6186;52.022;4.692;2023-01-23T01:42:42;8.50;8.50;4.25
12246;PMS7003;6186;52.022;4.692;2023-01-23T01:48:12;9.75;9.75;5.00
12246;PMS7003;6186;52.022;4.692;2023-01-23T01:50:39;9.75;9.75;4.75
12246;PMS7003;6186;52.022;4.692;2023-01-23T01:53:04;11.00;11.00;5.00
12246;PMS7003;6186;52.022;4.692;2023-01-23T01:55:30;11.75;9.50;5.00
12246;PMS7003;6186;52.022;4.692;2023-01-23T01:57:56;11.50;11.00;6.00
12246;PMS7003;6186;52.022;4.692;2023-01-23T02:00:22;11.33;9.00;4.67
12246;PMS7003;6186;52.022;4.692;2023-01-23T02:02:51;9.00;9.00;5.00
12246;PMS7003;6186;52.022;4.692;2023-01-23T02:05:20;12.00;10.00;3.00
12246;PMS7003;6186;52.022;4.692;2023-01-23T02:10:39;9.00;9.00;5.00
12246;PMS7003;6186;52.022;4.692;2023-01-23T02:13:27;10.25;9.75;4.50
12246;PMS7003;6186;52.022;4.692;2023-01-23T02:16:00;11.00;9.00;4.00
12246;PMS7003;6186;52.022;4.692;2023-01-23T02:18:28;12.00;10.00;4.75
12246;PMS7003;6186;52.022;4.692;2023-01-23T02:20:57;12.50;11.75;5.25
12246;PMS7003;6186;52.022;4.692;2023-01-23T02:23:33;10.00;9.25;4.75
12246;PMS7003;6186;52.022;4.692;2023-01-23T02:26:21;11.75;11.00;4.25
12246;PMS7003;6186;52.022;4.692;2023-01-23T02:28:51;11.50;10.75;4.25
12246;PMS7003;6186;52.022;4.692;2023-01-23T02:31:18;10.75;9.75;4.00
12246;PMS7003;6186;52.022;4.692;2023-01-23T02:33:48;9.00;9.00;5.00
12246;PMS7003;6186;52.022;4.692;2023-01-23T02:36:18;9.00;8.25;4.00
12246;PMS7003;6186;52.022;4.692;2023-01-23T02:39:00;9.00;8.25;5.00
12246;PMS7003;6186;52.022;4.692;2023-01-23T02:41:40;10.00;8.25;4.00
12246;PMS7003;6186;52.022;4.692;2023-01-23T02:46:56;12.00;8.50;4.00
12246;PMS7003;6186;52.022;4.692;2023-01-23T02:49:24;8.25;8.25;4.25
12246;PMS7003;6186;52.022;4.692;2023-01-23T02:51:50;8.33;8.00;4.00
12246;PMS7003;6186;52.022;4.692;2023-01-23T02:54:17;9.25;8.25;4.00
12246;PMS7003;6186;52.022;4.692;2023-01-23T02:56:43;9.67;8.33;4.00
12246;PMS7003;6186;52.022;4.692;2023-01-23T02:59:08;11.00;9.00;4.00
12246;PMS7003;6186;52.022;4.692;2023-01-23T03:01:52;10.50;10.50;4.00
12246;PMS7003;6186;52.022;4.692;2023-01-23T03:04:18;9.67;8.00;4.00
12246;PMS7003;6186;52.022;4.692;2023-01-23T03:06:43;9.33;8.67;4.33
12246;PMS7003;6186;52.022;4.692;2023-01-23T03:09:12;10.33;8.00;4.00
12246;PMS7003;6186;52.022;4.692;2023-01-23T03:11:40;10.75;9.50;4.75
12246;PMS7003;6186;52.022;4.692;2023-01-23T03:14:12;9.75;8.50;4.00
12246;PMS7003;6186;52.022;4.692;2023-01-23T03:16:40;13.25;9.00;4.00
12246;PMS7003;6186;52.022;4.692;2023-01-23T03:19:06;11.00;8.25;3.00
12246;PMS7003;6186;52.022;4.692;2023-01-23T03:21:37;12.25;9.50;4.00
12246;PMS7003;6186;52.022;4.692;2023-01-23T03:24:04;9.00;8.25;4.00
12246;PMS7003;6186;52.022;4.692;2023-01-23T03:26:31;9.00;8.25;4.00
12246;PMS7003;6186;52.022;4.692;2023-01-23T03:28:57;9.00;8.00;4.00
12246;PMS7003;6186;52.022;4.692;2023-01-23T03:31:40;11.75;7.00;2.00
12246;PMS7003;6186;52.022;4.692;2023-01-23T03:34:06;9.00;9.00;4.00
12246;PMS7003;6186;52.022;4.692;2023-01-23T03:36:32;10.00;8.25;4.25
12246;PMS7003;6186;52.022;4.692;2023-01-23T03:39:01;9.00;8.25;4.50
12246;PMS7003;6186;52.022;4.692;2023-01-23T03:41:46;16.00;12.50;5.00
12246;PMS7003;6186;52.022;4.692;2023-01-23T03:44:12;11.00;9.67;4.33
12246;PMS7003;6186;52.022;4.692;2023-01-23T03:46:37;11.00;11.00;5.00
12246;PMS7003;6186;52.022;4.692;2023-01-23T03:49:02;11.33;8.33;4.33
12246;PMS7003;6186;52.022;4.692;2023-01-23T03:51:28;12.00;9.00;5.00
12246;PMS7003;6186;52.022;4.692;2023-01-23T03:53:53;8.67;8.00;4.00
12246;PMS7003;6186;52.022;4.692;2023-01-23T03:56:18;10.33;9.00;5.00
12246;PMS7003;6186;52.022;4.692;2023-01-23T03:58:44;14.33;13.00;6.33
12246;PMS7003;6186;52.022;4.692;2023-01-23T04:01:09;15.00;12.00;4.00
12246;PMS7003;6186;52.022;4.692;2023-01-23T04:03:36;10.50;10.50;5.00
12246;PMS7003;6186;52.022;4.692;2023-01-23T04:06:01;9.00;9.00;4.00
12246;PMS7003;6186;52.022;4.692;2023-01-23T04:08:27;10.33;9.00;4.67
12246;PMS7003;6186;52.022;4.692;2023-01-23T04:11:00;12.75;10.25;5.00
12246;PMS7003;6186;52.022;4.692;2023-01-23T04:13:27;16.00;12.25;5.50
12246;PMS7003;6186;52.022;4.692;2023-01-23T04:15:52;11.33;11.00;5.00
12246;PMS7003;6186;52.022;4.692;2023-01-23T04:18:18;15.33;10.67;4.67
12246;PMS7003;6186;52.022;4.692;2023-01-23T04:20:43;8.67;8.33;4.00
12246;PMS7003;6186;52.022;4.692;2023-01-23T04:23:08;15.00;11.33;5.00
12246;PMS7003;6186;52.022;4.692;2023-01-23T04:25:33;14.00;9.00;4.00
12246;PMS7003;6186;52.022;4.692;2023-01-23T04:27:59;15.67;13.67;6.00
12246;PMS7003;6186;52.022;4.692;2023-01-23T04:30:24;12.00;9.00;5.00
12246;PMS7003;6186;52.022;4.692;2023-01-23T04:32:50;11.33;11.00;4.00
12246;PMS7003;6186;52.022;4.692;2023-01-23T04:35:15;12.33;11.33;5.00
12246;PMS7003;6186;52.022;4.692;2023-01-23T04:37:40;10.00;10.00;4.33
12246;PMS7003;6186;52.022;4.692;2023-01-23T04:40:06;13.33;10.33;4.67
12246;PMS7003;6186;52.022;4.692;2023-01-23T04:42:31;11.00;9.75;4.25
12246;PMS7003;6186;52.022;4.692;2023-01-23T04:44:57;13.33;11.33;5.00
12246;PMS7003;6186;52.022;4.692;2023-01-23T04:47:22;13.00;11.33;5.00
12246;PMS7003;6186;52.022;4.692;2023-01-23T04:49:47;14.00;9.67;5.00
12246;PMS7003;6186;52.022;4.692;2023-01-23T04:52:13;12.00;10.33;5.00
12246;PMS7003;6186;52.022;4.692;2023-01-23T04:54:38;11.00;9.00;4.00
12246;PMS7003;6186;52.022;4.692;2023-01-23T04:57:03;10.00;9.00;5.00
12246;PMS7003;6186;52.022;4.692;2023-01-23T04:59:29;8.00;8.00;4.00
12246;PMS7003;6186;52.022;4.692;2023-01-23T05:01:54;11.67;11.00;4.00
12246;PMS7003;6186;52.022;4.692;2023-01-23T05:04:19;15.00;11.00;5.00
12246;PMS7003;6186;52.022;4.692;2023-01-23T05:06:44;13.00;12.67;7.33
12246;PMS7003;6186;52.022;4.692;2023-01-23T05:09:10;14.00;9.67;4.00
12246;PMS7003;6186;52.022;4.692;2023-01-23T05:11:37;11.25;10.75;4.00
12246;PMS7003;6186;52.022;4.692;2023-01-23T05:14:02;11.00;9.00;5.00
12246;PMS7003;6186;52.022;4.692;2023-01-23T05:16:28;12.33;11.33;6.33
12246;PMS7003;6186;52.022;4.692;2023-01-23T05:18:53;13.33;11.00;4.00
12246;PMS7003;6186;52.022;4.692;2023-01-23T05:21:18;9.00;8.33;4.67
12246;PMS7003;6186;52.022;4.692;2023-01-23T05:23:44;10.00;9.33;5.33
12246;PMS7003;6186;52.022;4.692;2023-01-23T05:26:09;12.00;12.00;5.33
12246;PMS7003;6186;52.022;4.692;2023-01-23T05:28:34;11.00;10.00;5.33
12246;PMS7003;6186;52.022;4.692;2023-01-23T05:31:00;15.33;10.33;5.00
12246;PMS7003;6186;52.022;4.692;2023-01-23T05:33:25;12.00;11.00;6.33
12246;PMS7003;6186;52.022;4.692;2023-01-23T05:35:50;12.00;9.33;4.33
12246;PMS7003;6186;52.022;4.692;2023-01-23T05:38:16;15.33;11.33;5.00
12246;PMS7003;6186;52.022;4.692;2023-01-23T05:40:41;13.33;11.00;5.00
12246;PMS7003;6186;52.022;4.692;2023-01-23T05:43:07;12.33;11.00;5.00
12246;PMS7003;6186;52.022;4.692;2023-01-23T05:45:35;8.00;8.00;4.00
12246;PMS7003;6186;52.022;4.692;2023-01-23T05:48:01;12.33;11.33;5.00
12246;PMS7003;6186;52.022;4.692;2023-01-23T05:50:26;10.00;9.33;4.00
12246;PMS7003;6186;52.022;4.692;2023-01-23T05:52:52;8.67;8.33;4.00
12246;PMS7003;6186;52.022;4.692;2023-01-23T05:55:17;12.67;10.67;5.00
12246;PMS7003;6186;52.022;4.692;2023-01-23T05:57:43;13.67;11.33;5.00
12246;PMS7003;6186;52.022;4.692;2023-01-23T06:00:08;12.00;12.00;5.00
12246;PMS7003;6186;52.022;4.692;2023-01-23T06:02:37;12.50;11.00;4.75
12246;PMS7003;6186;52.022;4.692;2023-01-23T06:05:02;11.67;9.67;4.00
12246;PMS7003;6186;52.022;4.692;2023-01-23T06:07:28;9.67;8.67;4.00
12246;PMS7003;6186;52.022;4.692;2023-01-23T06:09:53;14.67;12.67;6.00
12246;PMS7003;6186;52.022;4.692;2023-01-23T06:12:18;12.00;10.33;5.00
12246;PMS7003;6186;52.022;4.692;2023-01-23T06:14:44;11.33;9.67;5.00
12246;PMS7003;6186;52.022;4.692;2023-01-23T06:17:10;12.50;10.75;5.00
12246;PMS7003;6186;52.022;4.692;2023-01-23T06:19:36;12.50;9.00;4.75
12246;PMS7003;6186;52.022;4.692;2023-01-23T06:22:01;13.67;11.67;5.33
12246;PMS7003;6186;52.022;4.692;2023-01-23T06:24:27;13.00;11.67;5.00
12246;PMS7003;6186;52.022;4.692;2023-01-23T06:26:52;12.00;11.33;5.00
12246;PMS7003;6186;52.022;4.692;2023-01-23T06:29:17;13.33;13.33;5.67
12246;PMS7003;6186;52.022;4.692;2023-01-23T06:31:43;13.67;12.00;5.00
12246;PMS7003;6186;52.022;4.692;2023-01-23T06:34:10;14.00;12.50;5.00
12246;PMS7003;6186;52.022;4.692;2023-01-23T06:36:35;13.00;12.00;5.00
12246;PMS7003;6186;52.022;4.692;2023-01-23T06:39:00;14.67;12.33;5.00
12246;PMS7003;6186;52.022;4.692;2023-01-23T06:41:26;12.00;11.67;6.33
12246;PMS7003;6186;52.022;4.692;2023-01-23T06:43:51;11.67;11.67;5.00
12246;PMS7003;6186;52.022;4.692;2023-01-23T06:46:17;12.00;11.75;5.50
12246;PMS7003;6186;52.022;4.692;2023-01-23T06:48:42;14.33;12.00;6.00
12246;PMS7003;6186;52.022;4.692;2023-01-23T06:51:08;13.00;11.00;5.00
12246;PMS7003;6186;52.022;4.692;2023-01-23T06:53:33;13.33;11.33;5.00
12246;PMS7003;6186;52.022;4.692;2023-01-23T06:56:02;13.00;11.67;6.00
12246;PMS7003;6186;52.022;4.692;2023-01-23T06:58:29;12.25;10.50;5.00
12246;PMS7003;6186;52.022;4.692;2023-01-23T07:00:55;12.50;11.00;5.00
12246;PMS7003;6186;52.022;4.692;2023-01-23T07:03:21;11.33;11.33;4.33
12246;PMS7003;6186;52.022;4.692;2023-01-23T07:05:46;13.67;11.00;5.33
12246;PMS7003;6186;52.022;4.692;2023-01-23T07:08:12;15.00;13.00;6.00
12246;PMS7003;6186;52.022;4.692;2023-01-23T07:10:37;12.67;11.67;5.33
12246;PMS7003;6186;52.022;4.692;2023-01-23T07:13:04;10.50;8.75;4.75
12246;PMS7003;6186;52.022;4.692;2023-01-23T07:15:30;13.75;11.50;5.00
12246;PMS7003;6186;52.022;4.692;2023-01-23T07:17:55;16.00;13.00;7.33
12246;PMS7003;6186;52.022;4.692;2023-01-23T07:20:20;14.33;12.33;6.00
12246;PMS7003;6186;52.022;4.692;2023-01-23T07:22:46;12.00;11.67;5.67
12246;PMS7003;6186;52.022;4.692;2023-01-23T07:25:11;13.33;10.33;5.00
12246;PMS7003;6186;52.022;4.692;2023-01-23T07:27:37;10.33;9.00;5.00
12246;PMS7003;6186;52.022;4.692;2023-01-23T07:30:02;12.67;10.33;5.00
12246;PMS7003;6186;52.022;4.692;2023-01-23T07:32:28;12.50;11.00;6.25
12246;PMS7003;6186;52.022;4.692;2023-01-23T07:34:53;15.00;12.00;5.00
12246;PMS7003;6186;52.022;4.692;2023-01-23T07:37:19;12.67;12.00;5.67
12246;PMS7003;6186;52.022;4.692;2023-01-23T07:39:44;15.00;12.67;8.00
12246;PMS7003;6186;52.022;4.692;2023-01-23T07:42:10;12.33;11.00;5.00
12246;PMS7003;6186;52.022;4.692;2023-01-23T07:44:35;12.00;10.33;6.00
12246;PMS7003;6186;52.022;4.692;2023-01-23T07:47:00;14.67;12.67;5.67
12246;PMS7003;6186;52.022;4.692;2023-01-23T07:49:26;10.00;9.67;5.00
12246;PMS7003;6186;52.022;4.692;2023-01-23T07:51:51;15.00;13.67;5.00
12246;PMS7003;6186;52.022;4.692;2023-01-23T07:54:16;12.00;11.00;5.00
12246;PMS7003;6186;52.022;4.692;2023-01-23T07:56:42;11.67;9.67;5.00
12246;PMS7003;6186;52.022;4.692;2023-01-23T07:59:07;13.00;11.00;5.00
12246;PMS7003;6186;52.022;4.692;2023-01-23T08:01:32;15.33;13.00;5.00
12246;PMS7003;6186;52.022;4.692;2023-01-23T08:03:58;13.00;12.00;6.00
12246;PMS7003;6186;52.022;4.692;2023-01-23T08:06:23;13.33;11.67;5.00
12246;PMS7003;6186;52.022;4.692;2023-01-23T08:08:48;13.00;12.00;5.67
12246;PMS7003;6186;52.022;4.692;2023-01-23T08:11:14;16.33;11.00;5.00
12246;PMS7003;6186;52.022;4.692;2023-01-23T08:13:40;13.00;12.00;5.00
12246;PMS7003;6186;52.022;4.692;2023-01-23T08:16:05;13.33;10.33;5.00
12246;PMS7003;6186;52.022;4.692;2023-01-23T08:18:31;12.50;10.75;4.75
12246;PMS7003;6186;52.022;4.692;2023-01-23T08:20:58;12.67;12.00;5.67
12246;PMS7003;6186;52.022;4.692;2023-01-23T08:23:25;12.00;12.00;6.25
12246;PMS7003;6186;52.022;4.692;2023-01-23T08:25:52;17.50;16.00;8.00
12246;PMS7003;6186;52.022;4.692;2023-01-23T08:28:18;14.75;12.50;5.00
12246;PMS7003;6186;52.022;4.692;2023-01-23T08:30:43;10.00;9.33;5.00
12246;PMS7003;6186;52.022;4.692;2023-01-23T08:33:08;14.00;12.33;5.33
12246;PMS7003;6186;52.022;4.692;2023-01-23T08:35:35;12.75;9.00;5.00
12246;PMS7003;6186;52.022;4.692;2023-01-23T08:38:01;12.25;10.50;5.25
12246;PMS7003;6186;52.022;4.692;2023-01-23T08:40:27;13.25;10.50;5.50
12246;PMS7003;6186;52.022;4.692;2023-01-23T08:42:53;15.67;13.00;5.33
12246;PMS7003;6186;52.022;4.692;2023-01-23T08:45:18;12.33;9.33;5.00
12246;PMS7003;6186;52.022;4.692;2023-01-23T08:47:44;15.50;12.00;6.00
12246;PMS7003;6186;52.022;4.692;2023-01-23T08:50:10;12.33;11.00;5.33
12246;PMS7003;6186;52.022;4.692;2023-01-23T08:52:35;15.00;13.67;6.33
12246;PMS7003;6186;52.022;4.692;2023-01-23T08:55:01;15.33;12.67;7.33
12246;PMS7003;6186;52.022;4.692;2023-01-23T08:57:26;13.33;9.00;5.00
12246;PMS7003;6186;52.022;4.692;2023-01-23T08:59:52;17.00;14.33;6.67
12246;PMS7003;6186;52.022;4.692;2023-01-23T09:02:17;13.33;11.67;6.00
12246;PMS7003;6186;52.022;4.692;2023-01-23T09:04:42;13.00;12.67;6.00
12246;PMS7003;6186;52.022;4.692;2023-01-23T09:07:09;13.33;10.33;5.00
12246;PMS7003;6186;52.022;4.692;2023-01-23T09:09:34;12.75;11.50;5.00
12246;PMS7003;6186;52.022;4.692;2023-01-23T09:12:00;13.00;12.00;6.00
12246;PMS7003;6186;52.022;4.692;2023-01-23T09:14:25;16.67;12.00;5.00
12246;PMS7003;6186;52.022;4.692;2023-01-23T09:16:50;16.67;12.00;5.67
12246;PMS7003;6186;52.022;4.692;2023-01-23T09:19:16;12.33;10.67;5.00
12246;PMS7003;6186;52.022;4.692;2023-01-23T09:21:41;14.33;12.00;5.33
12246;PMS7003;6186;52.022;4.692;2023-01-23T09:24:06;13.67;12.33;5.67
12246;PMS7003;6186;52.022;4.692;2023-01-23T09:26:32;13.33;12.00;6.00
12246;PMS7003;6186;52.022;4.692;2023-01-23T09:28:57;15.33;12.67;5.67
12246;PMS7003;6186;52.022;4.692;2023-01-23T09:31:23;13.33;13.33;8.00
12246;PMS7003;6186;52.022;4.692;2023-01-23T09:33:48;14.67;13.33;8.00
12246;PMS7003;6186;52.022;4.692;2023-01-23T09:36:15;14.50;12.25;5.25
12246;PMS7003;6186;52.022;4.692;2023-01-23T09:38:40;11.67;9.67;5.00
12246;PMS7003;6186;52.022;4.692;2023-01-23T09:41:07;13.00;12.33;5.00
12246;PMS7003;6186;52.022;4.692;2023-01-23T09:48:44;16.50;13.00;8.00
12246;PMS7003;6186;52.022;4.692;2023-01-23T09:51:17;14.00;12.75;6.00
12246;PMS7003;6186;52.022;4.692;2023-01-23T09:53:51;15.00;14.25;6.00
12246;PMS7003;6186;52.022;4.692;2023-01-23T09:56:21;17.00;13.00;8.00
12246;PMS7003;6186;52.022;4.692;2023-01-23T09:58:58;18.75;13.00;8.00
12246;PMS7003;6186;52.022;4.692;2023-01-23T10:01:28;15.75;12.00;5.75
12246;PMS7003;6186;52.022;4.692;2023-01-23T10:03:56;12.75;12.50;7.00
12246;PMS7003;6186;52.022;4.692;2023-01-23T10:06:24;16.75;13.25;6.00
12246;PMS7003;6186;52.022;4.692;2023-01-23T10:17:26;13.00;12.25;5.00
12246;PMS7003;6186;52.022;4.692;2023-01-23T10:23:07;12.75;11.75;6.00
12246;PMS7003;6186;52.022;4.692;2023-01-23T10:25:45;14.50;12.75;8.00
12246;PMS7003;6186;52.022;4.692;2023-01-23T10:28:16;17.50;16.25;8.75
12246;PMS7003;6186;52.022;4.692;2023-01-23T10:30:50;13.25;13.25;7.50
12246;PMS7003;6186;52.022;4.692;2023-01-23T10:33:24;16.50;14.75;6.00
12246;PMS7003;6186;52.022;4.692;2023-01-23T10:36:01;15.50;13.50;8.75
12246;PMS7003;6186;52.022;4.692;2023-01-23T10:41:09;14.25;13.00;6.00
12246;PMS7003;6186;52.022;4.692;2023-01-23T10:43:39;16.25;13.50;6.00
12246;PMS7003;6186;52.022;4.692;2023-01-23T10:46:13;18.75;14.25;6.75
12246;PMS7003;6186;52.022;4.692;2023-01-23T10:48:42;19.50;15.50;7.00
12246;PMS7003;6186;52.022;4.692;2023-01-23T10:59:20;14.25;13.25;6.25
12246;PMS7003;6186;52.022;4.692;2023-01-23T11:02:01;14.75;12.50;5.50
12246;PMS7003;6186;52.022;4.692;2023-01-23T11:04:43;13.75;12.50;6.00
12246;PMS7003;6186;52.022;4.692;2023-01-23T11:07:12;14.00;13.00;6.50
12246;PMS7003;6186;52.022;4.692;2023-01-23T11:09:46;15.00;14.00;7.50
12246;PMS7003;6186;52.022;4.692;2023-01-23T11:12:34;13.00;12.00;6.00
12246;PMS7003;6186;52.022;4.692;2023-01-23T11:17:40;16.75;14.50;7.25
12246;PMS7003;6186;52.022;4.692;2023-01-23T11:20:19;16.25;13.50;6.00
12246;PMS7003;6186;52.022;4.692;2023-01-23T11:23:15;16.00;14.00;6.50
12246;PMS7003;6186;52.022;4.692;2023-01-23T11:25:42;15.25;12.75;7.00
12246;PMS7003;6186;52.022;4.692;2023-01-23T11:28:28;18.25;15.00;6.75
12246;PMS7003;6186;52.022;4.692;2023-01-23T11:31:15;16.00;14.25;7.00
12246;PMS7003;6186;52.022;4.692;2023-01-23T11:39:21;17.00;15.25;8.50
12246;PMS7003;6186;52.022;4.692;2023-01-23T11:41:57;19.00;14.50;7.50
12246;PMS7003;6186;52.022;4.692;2023-01-23T11:44:22;15.50;15.00;8.25
12246;PMS7003;6186;52.022;4.692;2023-01-23T11:52:52;20.00;15.20;8.00
12246;PMS7003;6186;52.022;4.692;2023-01-23T11:55:33;16.60;15.40;8.00
12246;PMS7003;6186;52.022;4.692;2023-01-23T11:58:15;20.60;16.60;9.40
12246;PMS7003;6186;52.022;4.692;2023-01-23T12:01:14;18.00;15.20;7.00
12246;PMS7003;6186;52.022;4.692;2023-01-23T12:11:20;15.20;14.00;8.00
12246;PMS7003;6186;52.022;4.692;2023-01-23T12:25:10;15.60;13.40;8.00
12246;PMS7003;6186;52.022;4.692;2023-01-23T12:27:47;17.40;13.20;7.00
12246;PMS7003;6186;52.022;4.692;2023-01-23T12:30:27;13.60;12.40;6.80
12246;PMS7003;6186;52.022;4.692;2023-01-23T12:33:01;16.40;13.40;7.00
12246;PMS7003;6186;52.022;4.692;2023-01-23T12:43:51;15.40;12.20;7.00
12246;PMS7003;6186;52.022;4.692;2023-01-23T12:51:46;11.60;10.40;6.00
12246;PMS7003;6186;52.022;4.692;2023-01-23T12:54:19;15.60;11.40;6.00
12246;PMS7003;6186;52.022;4.692;2023-01-23T12:56:54;13.00;11.00;6.00
12246;PMS7003;6186;52.022;4.692;2023-01-23T12:59:24;13.60;11.40;5.20
12246;PMS7003;6186;52.022;4.692;2023-01-23T13:07:51;11.60;10.80;6.00
12246;PMS7003;6186;52.022;4.692;2023-01-23T13:13:31;16.00;12.80;6.20
12246;PMS7003;6186;52.022;4.692;2023-01-23T13:16:16;13.20;11.80;6.60
12246;PMS7003;6186;52.022;4.692;2023-01-23T13:25:00;13.60;12.40;6.00
12246;PMS7003;6186;52.022;4.692;2023-01-23T13:27:38;12.80;11.40;6.60
12246;PMS7003;6186;52.022;4.692;2023-01-23T13:32:59;13.40;12.00;6.80
12246;PMS7003;6186;52.022;4.692;2023-01-23T13:41:10;19.00;13.20;6.80
12246;PMS7003;6186;52.022;4.692;2023-01-23T13:50:25;12.00;11.80;6.20
12246;PMS7003;6186;52.022;4.692;2023-01-23T13:52:57;14.20;11.40;4.80
12246;PMS7003;6186;52.022;4.692;2023-01-23T13:55:57;15.00;11.20;5.00
12246;PMS7003;6186;52.022;4.692;2023-01-23T13:58:40;10.80;10.20;5.20
12246;PMS7003;6186;52.022;4.692;2023-01-23T14:01:09;13.20;9.00;4.00
12246;PMS7003;6186;52.022;4.692;2023-01-23T14:04:03;12.40;9.00;4.00
12246;PMS7003;6186;52.022;4.692;2023-01-23T14:07:25;12.00;11.20;5.40
12246;PMS7003;6186;52.022;4.692;2023-01-23T14:12:39;10.80;9.00;4.80
12246;PMS7003;6186;52.022;4.692;2023-01-23T14:15:16;12.50;11.50;5.00
12246;PMS7003;6186;52.022;4.692;2023-01-23T14:18:01;12.80;11.00;6.00
12246;PMS7003;6186;52.022;4.692;2023-01-23T14:20:28;11.60;8.40;4.40
12246;PMS7003;6186;52.022;4.692;2023-01-23T14:23:03;11.00;10.20;3.80
12246;PMS7003;6186;52.022;4.692;2023-01-23T14:25:30;15.20;12.40;6.00
12246;PMS7003;6186;52.022;4.692;2023-01-23T14:28:01;11.40;10.40;5.80
12246;PMS7003;6186;52.022;4.692;2023-01-23T14:30:28;12.40;11.00;4.80
12246;PMS7003;6186;52.022;4.692;2023-01-23T14:32:56;14.20;12.60;6.00
12246;PMS7003;6186;52.022;4.692;2023-01-23T14:35:29;15.00;11.20;4.40
12246;PMS7003;6186;52.022;4.692;2023-01-23T14:37:58;10.80;10.80;6.00
12246;PMS7003;6186;52.022;4.692;2023-01-23T14:40:26;11.40;10.60;6.00
12246;PMS7003;6186;52.022;4.692;2023-01-23T14:42:59;12.50;11.50;6.00
12246;PMS7003;6186;52.022;4.692;2023-01-23T14:45:27;13.40;12.00;6.20
12246;PMS7003;6186;52.022;4.692;2023-01-23T14:47:55;12.40;12.00;7.80
12246;PMS7003;6186;52.022;4.692;2023-01-23T14:50:22;12.00;10.25;5.00
12246;PMS7003;6186;52.022;4.692;2023-01-23T14:52:57;12.20;11.00;5.20
12246;PMS7003;6186;52.022;4.692;2023-01-23T14:55:41;14.40;12.80;6.80
12246;PMS7003;6186;52.022;4.692;2023-01-23T14:58:17;13.80;13.20;7.00
12246;PMS7003;6186;52.022;4.692;2023-01-23T15:00:46;17.00;15.20;8.80
12246;PMS7003;6186;52.022;4.692;2023-01-23T15:03:32;15.00;12.40;7.00
12246;PMS7003;6186;52.022;4.692;2023-01-23T15:06:05;13.00;12.20;6.00
12246;PMS7003;6186;52.022;4.692;2023-01-23T15:08:33;13.00;12.00;6.00
12246;PMS7003;6186;52.022;4.692;2023-01-23T15:11:00;11.80;11.00;5.80
12246;PMS7003;6186;52.022;4.692;2023-01-23T15:13:46;12.80;11.00;6.20
12246;PMS7003;6186;52.022;4.692;2023-01-23T15:16:24;12.40;10.40;5.40
12246;PMS7003;6186;52.022;4.692;2023-01-23T15:19:02;11.00;10.20;6.00
12246;PMS7003;6186;52.022;4.692;2023-01-23T15:21:31;11.60;11.60;5.80
12246;PMS7003;6186;52.022;4.692;2023-01-23T15:24:04;12.00;11.00;6.00
12246;PMS7003;6186;52.022;4.692;2023-01-23T15:26:36;13.00;12.80;6.40
12246;PMS7003;6186;52.022;4.692;2023-01-23T15:39:37;13.40;10.60;5.40
12246;PMS7003;6186;52.022;4.692;2023-01-23T15:44:40;11.25;11.00;6.00
12246;PMS7003;6186;52.022;4.692;2023-01-23T15:47:07;14.40;12.60;6.80
12246;PMS7003;6186;52.022;4.692;2023-01-23T15:49:34;12.40;11.00;6.00
12246;PMS7003;6186;52.022;4.692;2023-01-23T15:52:08;12.60;11.40;6.00
12246;PMS7003;6186;52.022;4.692;2023-01-23T15:54:38;11.60;10.80;6.00
12246;PMS7003;6186;52.022;4.692;2023-01-23T15:57:04;13.33;11.33;6.00
12246;PMS7003;6186;52.022;4.692;2023-01-23T15:59:30;14.00;11.00;6.00
12246;PMS7003;6186;52.022;4.692;2023-01-23T16:01:57;14.50;12.25;6.00
12246;PMS7003;6186;52.022;4.692;2023-01-23T16:04:23;10.50;10.00;5.50
12246;PMS7003;6186;52.022;4.692;2023-01-23T16:06:48;15.67;13.67;5.33
12246;PMS7003;6186;52.022;4.692;2023-01-23T16:09:20;13.75;10.75;6.00
12246;PMS7003;6186;52.022;4.692;2023-01-23T16:11:50;14.40;11.80;6.00
12246;PMS7003;6186;52.022;4.692;2023-01-23T16:14:16;14.20;11.40;6.00
12246;PMS7003;6186;52.022;4.692;2023-01-23T16:16:42;12.20;11.60;5.00
12246;PMS7003;6186;52.022;4.692;2023-01-23T16:19:08;15.20;11.80;6.00
12246;PMS7003;6186;52.022;4.692;2023-01-23T16:21:33;13.00;11.33;6.00
12246;PMS7003;6186;52.022;4.692;2023-01-23T16:23:59;11.00;9.00;5.00
12246;PMS7003;6186;52.022;4.692;2023-01-23T16:26:25;11.00;9.67;5.00
12246;PMS7003;6186;52.022;4.692;2023-01-23T16:28:52;10.80;9.60;5.00
12246;PMS7003;6186;52.022;4.692;2023-01-23T16:31:18;11.20;10.60;5.00
12246;PMS7003;6186;52.022;4.692;2023-01-23T16:33:44;11.20;10.20;6.00